EZY9001 EGCC-EGCC
Flight info
| Callsign | EZY9001 |
|---|---|
| Flight time | 0h 47m |
| Altitude | 5000 |
| Route | IFR CIRCUIT |
| Aircraft | A320/M-SDE2E3FGHIJ1RWXYZ/LB1 |
Departure
| Time | 2026-05-05 16:38 |
|---|---|
| Airport | Manchester Airport (EGCC) |
Arrival
| Time | 2026-05-05 17:26 |
|---|---|
| Airport | Manchester Airport (EGCC) |
| Time | Latitude | Longitude | Altitude | Speed | Heading |
|---|---|---|---|---|---|
| 2026-05-05 15:55 | 53.36031 | -2.27517 | 255 ft | 0 kts | 96° |
| 2026-05-05 16:27 | 53.36031 | -2.27516 | 255 ft | 0 kts | 96° |
| 2026-05-05 16:27 | 53.36033 | -2.27543 | 255 ft | 2 kts | 96° |
| 2026-05-05 16:27 | 53.36034 | -2.27570 | 255 ft | 2 kts | 96° |
| 2026-05-05 16:28 | 53.36035 | -2.27598 | 255 ft | 2 kts | 118° |
| 2026-05-05 16:28 | 53.36046 | -2.27619 | 255 ft | 2 kts | 171° |
| 2026-05-05 16:28 | 53.36054 | -2.27620 | 255 ft | 0 kts | 180° |
| 2026-05-05 16:31 | 53.36053 | -2.27620 | 255 ft | 0 kts | 180° |
| 2026-05-05 16:32 | 53.36012 | -2.27624 | 255 ft | 9 kts | 184° |
| 2026-05-05 16:32 | 53.35954 | -2.27629 | 255 ft | 8 kts | 181° |
| 2026-05-05 16:32 | 53.35900 | -2.27631 | 255 ft | 8 kts | 181° |
| 2026-05-05 16:32 | 53.35826 | -2.27642 | 255 ft | 13 kts | 185° |
| 2026-05-05 16:33 | 53.35726 | -2.27693 | 247 ft | 19 kts | 221° |
| 2026-05-05 16:33 | 53.35648 | -2.27854 | 242 ft | 15 kts | 230° |
| 2026-05-05 16:33 | 53.35579 | -2.27995 | 238 ft | 13 kts | 232° |
| 2026-05-05 16:33 | 53.35495 | -2.28123 | 236 ft | 19 kts | 209° |
| 2026-05-05 16:34 | 53.35367 | -2.28172 | 235 ft | 19 kts | 189° |
| 2026-05-05 16:34 | 53.35244 | -2.28279 | 232 ft | 16 kts | 225° |
| 2026-05-05 16:34 | 53.35164 | -2.28439 | 228 ft | 18 kts | 231° |
| 2026-05-05 16:34 | 53.35085 | -2.28602 | 229 ft | 17 kts | 229° |
| 2026-05-05 16:35 | 53.35003 | -2.28761 | 227 ft | 16 kts | 226° |
| 2026-05-05 16:35 | 53.34930 | -2.28889 | 226 ft | 15 kts | 227° |
| 2026-05-05 16:35 | 53.34850 | -2.29031 | 219 ft | 20 kts | 228° |
| 2026-05-05 16:35 | 53.34763 | -2.29202 | 214 ft | 18 kts | 229° |
| 2026-05-05 16:36 | 53.34687 | -2.29323 | 211 ft | 11 kts | 207° |
| 2026-05-05 16:36 | 53.34615 | -2.29343 | 213 ft | 10 kts | 176° |
| 2026-05-05 16:36 | 53.34566 | -2.29314 | 213 ft | 8 kts | 149° |
| 2026-05-05 16:36 | 53.34541 | -2.29237 | 214 ft | 7 kts | 81° |
| 2026-05-05 16:37 | 53.34557 | -2.29189 | 218 ft | 0 kts | 52° |
| 2026-05-05 16:37 | 53.34635 | -2.29023 | 216 ft | 61 kts | 51° |
| 2026-05-05 16:37 | 53.35082 | -2.28097 | 236 ft | 140 kts | 51° |
| 2026-05-05 16:38 | 53.35789 | -2.26655 | 631 ft | 172 kts | 50° |
| 2026-05-05 16:38 | 53.36571 | -2.25018 | 1447 ft | 184 kts | 49° |
| 2026-05-05 16:38 | 53.37381 | -2.23287 | 2221 ft | 197 kts | 49° |
| 2026-05-05 16:38 | 53.38257 | -2.21405 | 2955 ft | 209 kts | 45° |
| 2026-05-05 16:39 | 53.39433 | -2.20001 | 3871 ft | 221 kts | 21° |
| 2026-05-05 16:39 | 53.41069 | -2.19674 | 4022 ft | 253 kts | 352° |
| 2026-05-05 16:39 | 53.42692 | -2.20815 | 4014 ft | 258 kts | 323° |
| 2026-05-05 16:39 | 53.43787 | -2.23178 | 4006 ft | 262 kts | 294° |
| 2026-05-05 16:40 | 53.44066 | -2.26188 | 4005 ft | 265 kts | 266° |
| 2026-05-05 16:40 | 53.43895 | -2.29272 | 4004 ft | 266 kts | 274° |
| 2026-05-05 16:40 | 53.44413 | -2.32199 | 4004 ft | 262 kts | 303° |
| 2026-05-05 16:40 | 53.45612 | -2.34475 | 4010 ft | 261 kts | 316° |
| 2026-05-05 16:41 | 53.46590 | -2.37012 | 4008 ft | 263 kts | 289° |
| 2026-05-05 16:41 | 53.46730 | -2.40057 | 4007 ft | 264 kts | 260° |
| 2026-05-05 16:41 | 53.46079 | -2.42821 | 4006 ft | 250 kts | 242° |
| 2026-05-05 16:41 | 53.45226 | -2.45343 | 4005 ft | 248 kts | 240° |
| 2026-05-05 16:42 | 53.44350 | -2.47834 | 4014 ft | 248 kts | 240° |
| 2026-05-05 16:42 | 53.43471 | -2.50329 | 4011 ft | 248 kts | 240° |
| 2026-05-05 16:42 | 53.42587 | -2.52822 | 4010 ft | 249 kts | 240° |
| 2026-05-05 16:42 | 53.41705 | -2.55317 | 4011 ft | 249 kts | 240° |
| 2026-05-05 16:43 | 53.40825 | -2.57806 | 4013 ft | 248 kts | 240° |
| 2026-05-05 16:43 | 53.39952 | -2.60298 | 4013 ft | 248 kts | 239° |
| 2026-05-05 16:43 | 53.38794 | -2.62414 | 4006 ft | 249 kts | 212° |
| 2026-05-05 16:43 | 53.37196 | -2.63368 | 3874 ft | 240 kts | 188° |
| 2026-05-05 16:44 | 53.35568 | -2.63758 | 3739 ft | 228 kts | 185° |
| 2026-05-05 16:44 | 53.34048 | -2.64058 | 3614 ft | 219 kts | 185° |
| 2026-05-05 16:44 | 53.32539 | -2.64334 | 3482 ft | 212 kts | 185° |
| 2026-05-05 16:44 | 53.31074 | -2.64570 | 3324 ft | 212 kts | 181° |
| 2026-05-05 16:45 | 53.29650 | -2.64211 | 3174 ft | 210 kts | 163° |
| 2026-05-05 16:45 | 53.28232 | -2.63481 | 3059 ft | 212 kts | 161° |
| 2026-05-05 16:45 | 53.26859 | -2.62718 | 3004 ft | 202 kts | 160° |
| 2026-05-05 16:45 | 53.25546 | -2.61965 | 3006 ft | 198 kts | 160° |
| 2026-05-05 16:46 | 53.24269 | -2.61229 | 3007 ft | 196 kts | 160° |
| 2026-05-05 16:46 | 53.23126 | -2.60068 | 3010 ft | 193 kts | 133° |
| 2026-05-05 16:46 | 53.22498 | -2.58125 | 3010 ft | 188 kts | 93° |
| 2026-05-05 16:46 | 53.22618 | -2.56024 | 3010 ft | 184 kts | 72° |
| 2026-05-05 16:47 | 53.23137 | -2.54065 | 3009 ft | 182 kts | 57° |
| 2026-05-05 16:47 | 53.23821 | -2.52323 | 3010 ft | 182 kts | 54° |
| 2026-05-05 16:47 | 53.24558 | -2.50561 | 3012 ft | 183 kts | 53° |
| 2026-05-05 16:47 | 53.25278 | -2.48846 | 3011 ft | 182 kts | 53° |
| 2026-05-05 16:48 | 53.26000 | -2.47117 | 3008 ft | 182 kts | 53° |
| 2026-05-05 16:48 | 53.26724 | -2.45388 | 3006 ft | 182 kts | 53° |
| 2026-05-05 16:48 | 53.27474 | -2.43689 | 3008 ft | 180 kts | 48° |
| 2026-05-05 16:48 | 53.28294 | -2.42168 | 2939 ft | 174 kts | 45° |
| 2026-05-05 16:49 | 53.29098 | -2.40614 | 2662 ft | 180 kts | 48° |
| 2026-05-05 16:49 | 53.29901 | -2.38920 | 2289 ft | 191 kts | 50° |
| 2026-05-05 16:49 | 53.30750 | -2.37144 | 1941 ft | 196 kts | 50° |
| 2026-05-05 16:49 | 53.31559 | -2.35421 | 1643 ft | 181 kts | 49° |
| 2026-05-05 16:50 | 53.32317 | -2.33831 | 1267 ft | 172 kts | 49° |
| 2026-05-05 16:50 | 53.33071 | -2.32295 | 933 ft | 162 kts | 49° |
| 2026-05-05 16:50 | 53.33769 | -2.30889 | 628 ft | 156 kts | 56° |
| 2026-05-05 16:50 | 53.34436 | -2.29443 | 369 ft | 152 kts | 51° |
| 2026-05-05 16:51 | 53.35079 | -2.28110 | 241 ft | 138 kts | 51° |
| 2026-05-05 16:51 | 53.35633 | -2.26957 | 261 ft | 138 kts | 51° |
| 2026-05-05 16:51 | 53.36378 | -2.25434 | 737 ft | 189 kts | 47° |
| 2026-05-05 16:51 | 53.37518 | -2.24305 | 1494 ft | 198 kts | 12° |
| 2026-05-05 16:52 | 53.38951 | -2.24246 | 2259 ft | 213 kts | 358° |
| 2026-05-05 16:52 | 53.39942 | -2.24258 | 2931 ft | 219 kts | 0° |
| 2026-05-05 16:52 | 53.41589 | -2.24250 | 3315 ft | 221 kts | 0° |
| 2026-05-05 16:52 | 53.43133 | -2.24255 | 3479 ft | 223 kts | 0° |
| 2026-05-05 16:53 | 53.44651 | -2.24661 | 3502 ft | 224 kts | 336° |
| 2026-05-05 16:53 | 53.45819 | -2.26365 | 3502 ft | 227 kts | 303° |
| 2026-05-05 16:53 | 53.46240 | -2.28940 | 3506 ft | 231 kts | 269° |
| 2026-05-05 16:53 | 53.45754 | -2.31507 | 3508 ft | 235 kts | 238° |
| 2026-05-05 16:54 | 53.44767 | -2.33698 | 3506 ft | 236 kts | 231° |
| 2026-05-05 16:54 | 53.43707 | -2.35803 | 3508 ft | 237 kts | 230° |
| 2026-05-05 16:54 | 53.42651 | -2.37876 | 3509 ft | 236 kts | 230° |
| 2026-05-05 16:54 | 53.41565 | -2.39999 | 3510 ft | 237 kts | 230° |
| 2026-05-05 16:55 | 53.40498 | -2.42088 | 3509 ft | 235 kts | 230° |
| 2026-05-05 16:55 | 53.39440 | -2.44168 | 3508 ft | 236 kts | 230° |
| 2026-05-05 16:55 | 53.38371 | -2.46258 | 3508 ft | 236 kts | 230° |
| 2026-05-05 16:55 | 53.37297 | -2.48350 | 3509 ft | 238 kts | 230° |
| 2026-05-05 16:56 | 53.36216 | -2.50446 | 3511 ft | 237 kts | 230° |
| 2026-05-05 16:56 | 53.35491 | -2.51857 | 3509 ft | 236 kts | 230° |
| 2026-05-05 16:56 | 53.34420 | -2.53940 | 3511 ft | 235 kts | 230° |
| 2026-05-05 16:56 | 53.33356 | -2.56015 | 3511 ft | 236 kts | 230° |
| 2026-05-05 16:57 | 53.32286 | -2.58101 | 3509 ft | 238 kts | 230° |
| 2026-05-05 16:57 | 53.31184 | -2.60160 | 3509 ft | 238 kts | 222° |
| 2026-05-05 16:57 | 53.29723 | -2.61406 | 3414 ft | 236 kts | 189° |
| 2026-05-05 16:57 | 53.28154 | -2.61207 | 3286 ft | 222 kts | 161° |
| 2026-05-05 16:58 | 53.26749 | -2.60318 | 3208 ft | 213 kts | 156° |
| 2026-05-05 16:58 | 53.25311 | -2.59297 | 3102 ft | 229 kts | 155° |
| 2026-05-05 16:58 | 53.23910 | -2.58179 | 3003 ft | 217 kts | 141° |
| 2026-05-05 16:58 | 53.23030 | -2.56319 | 3002 ft | 197 kts | 107° |
| 2026-05-05 16:59 | 53.22874 | -2.54140 | 3007 ft | 187 kts | 78° |
| 2026-05-05 16:59 | 53.23368 | -2.52194 | 3010 ft | 182 kts | 51° |
| 2026-05-05 16:59 | 53.24163 | -2.50561 | 3005 ft | 178 kts | 49° |
| 2026-05-05 16:59 | 53.24924 | -2.49005 | 3003 ft | 168 kts | 49° |
| 2026-05-05 17:00 | 53.25650 | -2.47520 | 2995 ft | 163 kts | 49° |
| 2026-05-05 17:00 | 53.26363 | -2.46057 | 2879 ft | 161 kts | 49° |
| 2026-05-05 17:00 | 53.27072 | -2.44603 | 2700 ft | 161 kts | 49° |
| 2026-05-05 17:00 | 53.27788 | -2.43133 | 2481 ft | 161 kts | 48° |
| 2026-05-05 17:01 | 53.28491 | -2.41689 | 2253 ft | 160 kts | 48° |
| 2026-05-05 17:01 | 53.29194 | -2.40244 | 2043 ft | 160 kts | 48° |
| 2026-05-05 17:01 | 53.29886 | -2.38820 | 1819 ft | 154 kts | 49° |
| 2026-05-05 17:01 | 53.30540 | -2.37471 | 1617 ft | 146 kts | 48° |
| 2026-05-05 17:02 | 53.31156 | -2.36201 | 1428 ft | 136 kts | 48° |
| 2026-05-05 17:02 | 53.31741 | -2.35004 | 1224 ft | 131 kts | 47° |
| 2026-05-05 17:02 | 53.32317 | -2.33828 | 1005 ft | 131 kts | 48° |
| 2026-05-05 17:02 | 53.32900 | -2.32627 | 820 ft | 135 kts | 49° |
| 2026-05-05 17:03 | 53.33490 | -2.31402 | 629 ft | 136 kts | 49° |
| 2026-05-05 17:03 | 53.34098 | -2.30142 | 427 ft | 137 kts | 49° |
| 2026-05-05 17:03 | 53.34689 | -2.28910 | 269 ft | 136 kts | 49° |
| 2026-05-05 17:03 | 53.35252 | -2.27751 | 239 ft | 116 kts | 51° |
| 2026-05-05 17:04 | 53.35840 | -2.26532 | 331 ft | 169 kts | 51° |
| 2026-05-05 17:04 | 53.36720 | -2.24843 | 1008 ft | 203 kts | 40° |
| 2026-05-05 17:04 | 53.37987 | -2.23825 | 1814 ft | 213 kts | 9° |
| 2026-05-05 17:04 | 53.39566 | -2.23844 | 2442 ft | 242 kts | 358° |
| 2026-05-05 17:05 | 53.41201 | -2.23888 | 2734 ft | 238 kts | 0° |
| 2026-05-05 17:05 | 53.42861 | -2.23891 | 2992 ft | 239 kts | 0° |
| 2026-05-05 17:05 | 53.44550 | -2.23899 | 3250 ft | 241 kts | 0° |
| 2026-05-05 17:05 | 53.46236 | -2.23911 | 3445 ft | 244 kts | 0° |
| 2026-05-05 17:06 | 53.47932 | -2.23955 | 3500 ft | 244 kts | 355° |
| 2026-05-05 17:06 | 53.49506 | -2.24909 | 3506 ft | 245 kts | 325° |
| 2026-05-05 17:06 | 53.50581 | -2.27122 | 3506 ft | 249 kts | 294° |
| 2026-05-05 17:06 | 53.50840 | -2.29979 | 3509 ft | 253 kts | 264° |
| 2026-05-05 17:07 | 53.50218 | -2.32739 | 3509 ft | 257 kts | 239° |
| 2026-05-05 17:07 | 53.49217 | -2.35239 | 3510 ft | 258 kts | 235° |
| 2026-05-05 17:07 | 53.48179 | -2.37699 | 3509 ft | 257 kts | 235° |
| 2026-05-05 17:07 | 53.47144 | -2.40136 | 3509 ft | 256 kts | 235° |
| 2026-05-05 17:08 | 53.46118 | -2.42556 | 3505 ft | 248 kts | 236° |
| 2026-05-05 17:08 | 53.45148 | -2.44820 | 3506 ft | 230 kts | 235° |
| 2026-05-05 17:08 | 53.44245 | -2.46915 | 3506 ft | 214 kts | 235° |
| 2026-05-05 17:08 | 53.43399 | -2.48858 | 3504 ft | 200 kts | 235° |
| 2026-05-05 17:09 | 53.42597 | -2.50709 | 3513 ft | 195 kts | 235° |
| 2026-05-05 17:09 | 53.41803 | -2.52551 | 3512 ft | 196 kts | 235° |
| 2026-05-05 17:09 | 53.40992 | -2.54428 | 3510 ft | 195 kts | 235° |
| 2026-05-05 17:09 | 53.40202 | -2.56271 | 3510 ft | 194 kts | 235° |
| 2026-05-05 17:10 | 53.39414 | -2.58105 | 3511 ft | 194 kts | 235° |
| 2026-05-05 17:10 | 53.38612 | -2.59938 | 3512 ft | 196 kts | 235° |
| 2026-05-05 17:10 | 53.37712 | -2.61619 | 3509 ft | 195 kts | 212° |
| 2026-05-05 17:10 | 53.36414 | -2.62180 | 3513 ft | 196 kts | 173° |
| 2026-05-05 17:11 | 53.35082 | -2.61732 | 3514 ft | 196 kts | 162° |
| 2026-05-05 17:11 | 53.33779 | -2.61075 | 3512 ft | 195 kts | 160° |
| 2026-05-05 17:11 | 53.32486 | -2.60378 | 3510 ft | 195 kts | 160° |
| 2026-05-05 17:11 | 53.31196 | -2.59674 | 3491 ft | 196 kts | 160° |
| 2026-05-05 17:12 | 53.29908 | -2.58965 | 3384 ft | 194 kts | 160° |
| 2026-05-05 17:12 | 53.28626 | -2.58263 | 3281 ft | 195 kts | 160° |
| 2026-05-05 17:12 | 53.27327 | -2.57556 | 3178 ft | 198 kts | 160° |
| 2026-05-05 17:12 | 53.26017 | -2.56839 | 3086 ft | 198 kts | 160° |
| 2026-05-05 17:13 | 53.24787 | -2.55901 | 3006 ft | 195 kts | 137° |
| 2026-05-05 17:13 | 53.24009 | -2.54113 | 3013 ft | 187 kts | 106° |
| 2026-05-05 17:13 | 53.23878 | -2.52020 | 3011 ft | 181 kts | 77° |
| 2026-05-05 17:13 | 53.24375 | -2.50124 | 3014 ft | 179 kts | 50° |
| 2026-05-05 17:14 | 53.25166 | -2.48506 | 3009 ft | 180 kts | 49° |
| 2026-05-05 17:14 | 53.25957 | -2.46890 | 2960 ft | 180 kts | 49° |
| 2026-05-05 17:14 | 53.26745 | -2.45274 | 2778 ft | 179 kts | 50° |
| 2026-05-05 17:14 | 53.27530 | -2.43664 | 2554 ft | 179 kts | 49° |
| 2026-05-05 17:15 | 53.28316 | -2.42049 | 2311 ft | 180 kts | 49° |
| 2026-05-05 17:15 | 53.29107 | -2.40422 | 2071 ft | 180 kts | 49° |
| 2026-05-05 17:15 | 53.29899 | -2.38793 | 1819 ft | 181 kts | 49° |
| 2026-05-05 17:15 | 53.30689 | -2.37165 | 1579 ft | 180 kts | 49° |
| 2026-05-05 17:16 | 53.31480 | -2.35535 | 1327 ft | 180 kts | 49° |
| 2026-05-05 17:16 | 53.32279 | -2.33886 | 1056 ft | 180 kts | 49° |
| 2026-05-05 17:16 | 53.33067 | -2.32261 | 822 ft | 181 kts | 49° |
| 2026-05-05 17:16 | 53.33866 | -2.30629 | 533 ft | 186 kts | 50° |
| 2026-05-05 17:17 | 53.34699 | -2.28885 | 300 ft | 186 kts | 50° |
| 2026-05-05 17:17 | 53.35538 | -2.27154 | 322 ft | 224 kts | 50° |
| 2026-05-05 17:17 | 53.36478 | -2.24565 | 803 ft | 287 kts | 72° |
| 2026-05-05 17:17 | 53.36321 | -2.21188 | 1517 ft | 291 kts | 111° |
| 2026-05-05 17:18 | 53.34940 | -2.18929 | 1440 ft | 273 kts | 155° |
| 2026-05-05 17:18 | 53.33158 | -2.17736 | 1287 ft | 288 kts | 158° |
| 2026-05-05 17:18 | 53.31198 | -2.16488 | 1104 ft | 305 kts | 159° |
| 2026-05-05 17:18 | 53.29198 | -2.15271 | 1056 ft | 306 kts | 160° |
| 2026-05-05 17:19 | 53.27780 | -2.14469 | 1112 ft | 307 kts | 161° |
| 2026-05-05 17:19 | 53.25800 | -2.13344 | 1098 ft | 311 kts | 160° |
| 2026-05-05 17:19 | 53.23755 | -2.12207 | 1106 ft | 309 kts | 162° |
| 2026-05-05 17:19 | 53.21667 | -2.11387 | 1378 ft | 309 kts | 171° |
| 2026-05-05 17:20 | 53.19514 | -2.10940 | 1472 ft | 312 kts | 174° |
| 2026-05-05 17:20 | 53.17348 | -2.11168 | 1629 ft | 311 kts | 204° |
| 2026-05-05 17:20 | 53.15816 | -2.13455 | 1742 ft | 291 kts | 246° |
| 2026-05-05 17:20 | 53.15670 | -2.16670 | 1642 ft | 277 kts | 289° |
| 2026-05-05 17:21 | 53.16546 | -2.19497 | 1678 ft | 275 kts | 305° |
| 2026-05-05 17:21 | 53.17679 | -2.22024 | 1487 ft | 264 kts | 309° |
| 2026-05-05 17:21 | 53.18815 | -2.24353 | 1299 ft | 257 kts | 310° |
| 2026-05-05 17:22 | 53.21315 | -2.28535 | 1042 ft | 253 kts | 322° |
| 2026-05-05 17:22 | 53.22662 | -2.30267 | 980 ft | 236 kts | 322° |
| 2026-05-05 17:22 | 53.23911 | -2.31822 | 890 ft | 215 kts | 323° |
| 2026-05-05 17:22 | 53.25140 | -2.33262 | 818 ft | 225 kts | 327° |
| 2026-05-05 17:23 | 53.26433 | -2.34632 | 779 ft | 212 kts | 327° |
| 2026-05-05 17:23 | 53.27698 | -2.35721 | 750 ft | 197 kts | 340° |
| 2026-05-05 17:23 | 53.28970 | -2.36006 | 683 ft | 177 kts | 5° |
| 2026-05-05 17:23 | 53.30098 | -2.35465 | 705 ft | 160 kts | 19° |
| 2026-05-05 17:24 | 53.31100 | -2.34816 | 669 ft | 154 kts | 22° |
| 2026-05-05 17:24 | 53.32025 | -2.34047 | 650 ft | 142 kts | 33° |
| 2026-05-05 17:24 | 53.32749 | -2.32959 | 637 ft | 139 kts | 51° |
| 2026-05-05 17:24 | 53.33364 | -2.31669 | 544 ft | 151 kts | 55° |
| 2026-05-05 17:25 | 53.34059 | -2.30222 | 427 ft | 147 kts | 49° |
| 2026-05-05 17:25 | 53.34456 | -2.29391 | 332 ft | 145 kts | 50° |
| 2026-05-05 17:25 | 53.35257 | -2.27738 | 238 ft | 117 kts | 52° |
| 2026-05-05 17:25 | 53.35620 | -2.26984 | 260 ft | 63 kts | 51° |
| 2026-05-05 17:26 | 53.35795 | -2.26669 | 270 ft | 25 kts | 9° |
| 2026-05-05 17:26 | 53.35928 | -2.26734 | 256 ft | 17 kts | 310° |
| 2026-05-05 17:26 | 53.35892 | -2.26868 | 256 ft | 9 kts | 227° |
| 2026-05-05 17:26 | 53.35877 | -2.26894 | 256 ft | 0 kts | 227° |
| 2026-05-05 17:28 | 53.35876 | -2.26895 | 256 ft | 0 kts | 227° |
| 2026-05-05 17:29 | 53.35873 | -2.26903 | 256 ft | 4 kts | 229° |
| 2026-05-05 17:29 | 53.35836 | -2.26981 | 256 ft | 10 kts | 237° |
| 2026-05-05 17:29 | 53.35775 | -2.27142 | 255 ft | 21 kts | 232° |
| 2026-05-05 17:29 | 53.35680 | -2.27332 | 255 ft | 20 kts | 230° |
| 2026-05-05 17:30 | 53.35621 | -2.27514 | 246 ft | 16 kts | 290° |
| 2026-05-05 17:30 | 53.35700 | -2.27621 | 247 ft | 15 kts | 335° |
| 2026-05-05 17:30 | 53.35782 | -2.27650 | 253 ft | 9 kts | 4° |
| 2026-05-05 17:30 | 53.35831 | -2.27642 | 255 ft | 6 kts | 6° |
| 2026-05-05 17:31 | 53.35905 | -2.27630 | 255 ft | 12 kts | 3° |
| 2026-05-05 17:31 | 53.35980 | -2.27629 | 255 ft | 10 kts | 4° |
| 2026-05-05 17:31 | 53.36034 | -2.27606 | 255 ft | 5 kts | 52° |
| 2026-05-05 17:31 | 53.36034 | -2.27544 | 255 ft | 5 kts | 95° |
| 2026-05-05 17:32 | 53.36031 | -2.27504 | 255 ft | 2 kts | 96° |
| 2026-05-05 17:32 | 53.36031 | -2.27500 | 255 ft | 0 kts | 96° |